Time;durP1;ratioP1;P1;durP2;ratioP2;P2;SDS_P1;SDS_P2;PMS_P1;PMS_P2;Temp;Humidity;BMP_temperature;BMP_pressure;BME280_temperature;BME280_humidity;BME280_pressure;Samples;Min_cycle;Max_cycle;Signal;HPM_P1;HPM_P2
2023/04/12 00:02:39;;;;;;;12.23;6.97;;;;;;;;;;6271062;28;20044;-59
2023/04/12 00:05:45;;;;;;;14.55;7.20;;;;;;;;;;6269872;28;20056;-59
2023/04/12 00:08:47;;;;;;;12.52;7.00;;;;;;;;;;6281188;28;20117;-59
2023/04/12 00:11:47;;;;;;;11.65;6.40;;;;;;;;;;6282405;28;20061;-59
2023/04/12 00:14:48;;;;;;;12.18;6.20;;;;;;;;;;6277474;28;20075;-58
2023/04/12 00:17:48;;;;;;;14.10;6.82;;;;;;;;;;6279612;28;20044;-59
2023/04/12 00:20:51;;;;;;;15.20;6.85;;;;;;;;;;6286709;28;20048;-58
2023/04/12 00:23:51;;;;;;;;;;;;;;;;;;6282916;28;20485;-58
2023/04/12 00:26:52;;;;;;;12.18;6.38;;;;;;;;;;6275426;28;19936;-61
2023/04/12 00:29:53;;;;;;;16.42;6.88;;;;;;;;;;6278048;28;20044;-58
2023/04/12 00:32:54;;;;;;;15.00;7.53;;;;;;;;;;6276319;28;20168;-59
2023/04/12 00:35:54;;;;;;;13.32;7.88;;;;;;;;;;6275116;28;20049;-59
2023/04/12 00:38:55;;;;;;;14.23;7.03;;;;;;;;;;6292499;28;20056;-59
2023/04/12 00:41:55;;;;;;;12.13;6.82;;;;;;;;;;6288330;28;20056;-58
2023/04/12 00:44:56;;;;;;;13.73;7.35;;;;;;;;;;6275486;28;20052;-59
2023/04/12 00:47:57;;;;;;;14.95;6.68;;;;;;;;;;6276638;28;20044;-58
2023/04/12 00:50:59;;;;;;;13.75;7.30;;;;;;;;;;6286912;28;20044;-58
2023/04/12 00:54:00;;;;;;;13.30;7.00;;;;;;;;;;6281805;28;20044;-59
2023/04/12 00:57:01;;;;;;;15.15;7.60;;;;;;;;;;6294285;28;20067;-58
2023/04/12 01:00:11;;;;;;;15.15;7.57;;;;;;;;;;6277737;28;20037;-58
2023/04/12 01:03:15;;;;;;;14.50;8.05;;;;;;;;;;6274550;28;20072;-58
2023/04/12 01:06:28;;;;;;;16.42;8.30;;;;;;;;;;6285709;28;20041;-59
2023/04/12 01:09:52;;;;;;;14.93;7.70;;;;;;;;;;6285297;28;20093;-59
2023/04/12 01:13:10;;;;;;;18.45;8.82;;;;;;;;;;6287472;28;20082;-59
2023/04/12 01:16:32;;;;;;;13.88;7.32;;;;;;;;;;6276002;28;20105;-58
2023/04/12 01:19:53;;;;;;;14.88;6.80;;;;;;;;;;6279514;28;20080;-59
2023/04/12 01:23:13;;;;;;;13.32;7.13;;;;;;;;;;6282239;28;20048;-58
2023/04/12 01:26:33;;;;;;;13.05;6.55;;;;;;;;;;6271779;28;20134;-58
2023/04/12 01:29:34;;;;;;;13.18;6.65;;;;;;;;;;6283759;28;20052;-59
2023/04/12 01:32:37;;;;;;;16.17;7.07;;;;;;;;;;6291633;28;20049;-59
2023/04/12 01:35:39;;;;;;;13.45;6.60;;;;;;;;;;6277297;28;20507;-58
2023/04/12 01:38:40;;;;;;;16.20;6.78;;;;;;;;;;6279049;28;20055;-58
2023/04/12 01:41:44;;;;;;;14.07;6.57;;;;;;;;;;6274727;28;20055;-58
2023/04/12 01:44:44;;;;;;;13.85;6.60;;;;;;;;;;6274173;28;20040;-59
2023/04/12 01:47:45;;;;;;;10.98;6.53;;;;;;;;;;6270559;28;20052;-58
2023/04/12 01:51:06;;;;;;;14.43;7.05;;;;;;;;;;6272454;28;20053;-59
2023/04/12 01:54:10;;;;;;;15.10;7.28;;;;;;;;;;6273266;28;20041;-58
2023/04/12 01:57:13;;;;;;;14.90;7.60;;;;;;;;;;6284062;28;20452;-59
2023/04/12 02:00:15;;;;;;;12.15;6.47;;;;;;;;;;6279133;28;20450;-58
2023/04/12 02:03:21;;;;;;;14.80;6.45;;;;;;;;;;6270551;28;21626;-59
2023/04/12 02:06:23;;;;;;;13.65;6.40;;;;;;;;;;6283923;28;20045;-59
2023/04/12 02:09:23;;;;;;;11.93;6.00;;;;;;;;;;6271879;28;20098;-58
2023/04/12 02:12:24;;;;;;;11.30;5.70;;;;;;;;;;6271866;28;20094;-58
2023/04/12 02:15:26;;;;;;;11.80;5.88;;;;;;;;;;6275414;28;20055;-59
2023/04/12 02:18:27;;;;;;;11.05;5.45;;;;;;;;;;6284589;28;20074;-59
2023/04/12 02:21:28;;;;;;;11.18;5.50;;;;;;;;;;6272537;28;20076;-58
2023/04/12 02:24:28;;;;;;;11.43;5.43;;;;;;;;;;6269161;28;20055;-58
2023/04/12 02:27:29;;;;;;;12.57;4.70;;;;;;;;;;6278155;28;20036;-58
2023/04/12 02:30:30;;;;;;;10.23;4.88;;;;;;;;;;6292289;28;20036;-59
2023/04/12 02:33:30;;;;;;;9.52;4.53;;;;;;;;;;6281899;28;20479;-59
2023/04/12 02:36:31;;;;;;;10.38;4.80;;;;;;;;;;6288934;28;20087;-59
2023/04/12 02:39:33;;;;;;;9.57;4.75;;;;;;;;;;6280641;28;20098;-59
2023/04/12 02:42:34;;;;;;;9.85;4.43;;;;;;;;;;6290799;28;20052;-59
2023/04/12 02:45:35;;;;;;;9.75;4.80;;;;;;;;;;6285843;28;20514;-59
2023/04/12 02:48:35;;;;;;;9.63;4.78;;;;;;;;;;6294357;28;20104;-58
2023/04/12 02:51:37;;;;;;;10.13;4.70;;;;;;;;;;6272230;28;20048;-58
2023/04/12 02:54:38;;;;;;;10.00;4.93;;;;;;;;;;6270673;28;20056;-59
2023/04/12 02:57:38;;;;;;;10.00;5.18;;;;;;;;;;6287056;28;20522;-58
2023/04/12 03:00:41;;;;;;;8.68;4.63;;;;;;;;;;6283204;28;20053;-59
2023/04/12 03:03:41;;;;;;;10.23;5.15;;;;;;;;;;6276202;28;20090;-60
2023/04/12 03:06:52;;;;;;;11.43;5.72;;;;;;;;;;6271143;28;20060;-58
2023/04/12 03:09:52;;;;;;;11.10;5.50;;;;;;;;;;6269724;28;20041;-60
2023/04/12 03:12:53;;;;;;;11.98;5.38;;;;;;;;;;6269457;28;20120;-60
2023/04/12 03:15:56;;;;;;;11.32;5.82;;;;;;;;;;6267775;28;20496;-61
2023/04/12 03:18:57;;;;;;;12.93;5.90;;;;;;;;;;6271279;28;20637;-60
2023/04/12 03:21:58;;;;;;;13.10;6.35;;;;;;;;;;6272437;28;20040;-60
2023/04/12 03:25:00;;;;;;;13.40;6.85;;;;;;;;;;6268200;28;20171;-60
2023/04/12 03:28:00;;;;;;;11.13;6.10;;;;;;;;;;6269869;28;20096;-61
2023/04/12 03:31:01;;;;;;;12.65;6.47;;;;;;;;;;6270879;28;20068;-61
2023/04/12 03:34:02;;;;;;;12.00;6.82;;;;;;;;;;6270502;28;20428;-61
2023/04/12 03:37:02;;;;;;;13.52;7.35;;;;;;;;;;6284672;28;20060;-58
2023/04/12 03:40:05;;;;;;;13.77;7.25;;;;;;;;;;6281530;28;20045;-59
2023/04/12 03:43:05;;;;;;;;;;;;;;;;;;6272035;28;20051;-58
2023/04/12 03:46:06;;;;;;;14.43;6.93;;;;;;;;;;6267473;28;19921;-58
2023/04/12 03:49:07;;;;;;;16.80;8.05;;;;;;;;;;6267567;28;20443;-58
2023/04/12 03:52:07;;;;;;;16.02;8.43;;;;;;;;;;6270686;28;20384;-58
2023/04/12 03:55:08;;;;;;;15.52;7.68;;;;;;;;;;6270270;28;20498;-58
2023/04/12 03:58:08;;;;;;;15.75;7.60;;;;;;;;;;6268335;28;20446;-59
2023/04/12 04:01:12;;;;;;;14.50;7.35;;;;;;;;;;6271145;28;20044;-61
2023/04/12 04:04:13;;;;;;;14.52;7.35;;;;;;;;;;6269207;28;20045;-61
2023/04/12 04:07:13;;;;;;;14.18;6.70;;;;;;;;;;6267969;28;20052;-60
2023/04/12 04:10:14;;;;;;;13.00;6.20;;;;;;;;;;6268045;28;20068;-60
2023/04/12 04:13:15;;;;;;;13.52;7.60;;;;;;;;;;6267443;28;20045;-61
2023/04/12 04:16:16;;;;;;;12.27;6.90;;;;;;;;;;6270347;28;20114;-61
2023/04/12 04:19:17;;;;;;;13.10;6.53;;;;;;;;;;6271339;28;20487;-58
2023/04/12 04:22:20;;;;;;;15.48;6.80;;;;;;;;;;6268558;28;20041;-59
2023/04/12 04:25:22;;;;;;;14.23;6.63;;;;;;;;;;6268213;28;20047;-58
2023/04/12 04:28:22;;;;;;;16.67;7.67;;;;;;;;;;6278635;28;20044;-58
2023/04/12 04:31:25;;;;;;;18.50;7.70;;;;;;;;;;6269783;28;20420;-58
2023/04/12 04:34:25;;;;;;;14.63;6.63;;;;;;;;;;6267831;28;20411;-58
2023/04/12 04:37:29;;;;;;;14.93;7.13;;;;;;;;;;6268138;28;20053;-58
2023/04/12 04:40:31;;;;;;;12.85;6.70;;;;;;;;;;6270809;28;20618;-58
2023/04/12 04:43:32;;;;;;;14.55;6.68;;;;;;;;;;6267420;28;20524;-59
2023/04/12 04:46:35;;;;;;;15.00;7.28;;;;;;;;;;6264354;28;20045;-59
2023/04/12 04:49:36;;;;;;;16.58;7.72;;;;;;;;;;6268612;28;20044;-59
2023/04/12 04:52:38;;;;;;;15.45;7.50;;;;;;;;;;6274398;28;20045;-60
2023/04/12 04:55:38;;;;;;;13.38;7.35;;;;;;;;;;6269506;28;20939;-61
2023/04/12 04:58:39;;;;;;;13.18;7.00;;;;;;;;;;6274182;28;20040;-58
2023/04/12 05:01:40;;;;;;;13.98;7.07;;;;;;;;;;6274477;28;20044;-58
2023/04/12 05:04:40;;;;;;;15.82;8.05;;;;;;;;;;6278180;28;20059;-60
2023/04/12 05:07:44;;;;;;;13.98;7.00;;;;;;;;;;6274428;28;20052;-61
2023/04/12 05:10:49;;;;;;;17.35;8.13;;;;;;;;;;6273099;28;20064;-62
2023/04/12 05:13:50;;;;;;;17.83;7.50;;;;;;;;;;6275148;28;20050;-61
2023/04/12 05:16:50;;;;;;;15.98;6.85;;;;;;;;;;6284241;28;20052;-60
2023/04/12 05:19:51;;;;;;;14.43;6.60;;;;;;;;;;6272738;28;20045;-60
2023/04/12 05:22:52;;;;;;;12.38;6.32;;;;;;;;;;6270547;28;20063;-63
2023/04/12 05:25:53;;;;;;;14.20;6.72;;;;;;;;;;6272580;28;20052;-58
2023/04/12 05:28:53;;;;;;;17.25;7.50;;;;;;;;;;6271780;28;20048;-58
2023/04/12 05:31:54;;;;;;;15.25;6.35;;;;;;;;;;6273580;28;20567;-59
2023/04/12 05:34:54;;;;;;;14.77;7.10;;;;;;;;;;6273980;28;20051;-58
2023/04/12 05:37:55;;;;;;;18.17;7.10;;;;;;;;;;6272271;28;20047;-55
2023/04/12 05:40:56;;;;;;;14.73;8.18;;;;;;;;;;6281940;28;20057;-58
2023/04/12 05:43:57;;;;;;;20.52;8.20;;;;;;;;;;6286800;28;20051;-58
2023/04/12 05:46:57;;;;;;;18.05;8.70;;;;;;;;;;6278485;28;20049;-61
2023/04/12 05:49:58;;;;;;;17.75;8.57;;;;;;;;;;6280525;28;20063;-61
2023/04/12 05:53:00;;;;;;;19.83;8.90;;;;;;;;;;6276737;28;20103;-61
2023/04/12 05:56:01;;;;;;;19.45;9.38;;;;;;;;;;6272569;28;20053;-61
2023/04/12 05:59:02;;;;;;;20.45;9.77;;;;;;;;;;6270874;28;20095;-61
2023/04/12 06:02:03;;;;;;;21.08;9.82;;;;;;;;;;6269516;28;20044;-59
2023/04/12 06:05:04;;;;;;;18.60;9.63;;;;;;;;;;6268719;28;20041;-59
2023/04/12 06:08:05;;;;;;;20.00;9.88;;;;;;;;;;6274795;28;20043;-59
2023/04/12 06:11:07;;;;;;;20.33;10.32;;;;;;;;;;6269738;28;20041;-61
2023/04/12 06:14:07;;;;;;;20.10;9.97;;;;;;;;;;6272335;28;20502;-61
2023/04/12 06:17:08;;;;;;;20.52;9.10;;;;;;;;;;6270725;28;20301;-61
2023/04/12 06:20:09;;;;;;;19.08;8.43;;;;;;;;;;6272360;28;20040;-61
2023/04/12 06:23:09;;;;;;;19.77;10.00;;;;;;;;;;6272436;28;20041;-61
2023/04/12 06:26:10;;;;;;;16.88;7.38;;;;;;;;;;6269392;28;20090;-61
2023/04/12 06:29:11;;;;;;;18.33;7.45;;;;;;;;;;6269336;28;20430;-58
2023/04/12 06:32:12;;;;;;;18.80;7.60;;;;;;;;;;6279251;28;20470;-57
2023/04/12 06:35:12;;;;;;;15.25;7.57;;;;;;;;;;6286960;28;20063;-57
2023/04/12 06:38:13;;;;;;;16.05;6.85;;;;;;;;;;6274637;28;20045;-57
2023/04/12 06:41:14;;;;;;;13.02;6.43;;;;;;;;;;6270616;28;20470;-58
2023/04/12 06:44:15;;;;;;;10.85;6.80;;;;;;;;;;6273364;28;20535;-58
2023/04/12 06:47:16;;;;;;;14.07;6.28;;;;;;;;;;6269660;28;20052;-58
2023/04/12 06:50:17;;;;;;;13.38;7.00;;;;;;;;;;6274205;28;20517;-58
2023/04/12 06:53:17;;;;;;;13.52;7.03;;;;;;;;;;6271595;28;20048;-58
2023/04/12 06:56:18;;;;;;;13.95;7.18;;;;;;;;;;6267366;28;20071;-58
2023/04/12 06:59:19;;;;;;;12.32;6.95;;;;;;;;;;6270095;28;20048;-58
2023/04/12 07:02:20;;;;;;;11.80;6.68;;;;;;;;;;6267994;28;20043;-58
2023/04/12 07:05:20;;;;;;;13.50;7.50;;;;;;;;;;6269686;28;20372;-58
2023/04/12 07:08:21;;;;;;;11.63;7.30;;;;;;;;;;6270639;28;20302;-58
2023/04/12 07:11:21;;;;;;;14.27;7.35;;;;;;;;;;6279242;28;20588;-58
2023/04/12 07:14:22;;;;;;;12.80;7.07;;;;;;;;;;6287514;28;20412;-58
2023/04/12 07:17:25;;;;;;;12.07;7.25;;;;;;;;;;6272217;28;20060;-58
2023/04/12 07:20:26;;;;;;;12.98;7.28;;;;;;;;;;6271752;28;20044;-58
2023/04/12 07:23:27;;;;;;;14.63;7.55;;;;;;;;;;6268559;28;20458;-58
2023/04/12 07:26:29;;;;;;;11.88;7.25;;;;;;;;;;6268287;28;20041;-64
2023/04/12 07:29:29;;;;;;;12.85;7.32;;;;;;;;;;6270181;28;20140;-58
2023/04/12 07:32:30;;;;;;;18.63;7.97;;;;;;;;;;6268075;28;20484;-58
2023/04/12 07:35:31;;;;;;;16.75;8.10;;;;;;;;;;6271693;28;20057;-59
2023/04/12 07:38:32;;;;;;;15.40;7.88;;;;;;;;;;6275362;28;20047;-58
2023/04/12 07:41:32;;;;;;;14.52;7.95;;;;;;;;;;6271228;28;20040;-58
2023/04/12 07:44:33;;;;;;;12.25;8.32;;;;;;;;;;6269352;28;20139;-60
2023/04/12 07:47:33;;;;;;;14.95;8.30;;;;;;;;;;6286405;28;20052;-58
2023/04/12 07:50:34;;;;;;;15.32;8.95;;;;;;;;;;6277942;28;20088;-58
2023/04/12 07:53:35;;;;;;;18.30;9.05;;;;;;;;;;6271660;28;20059;-59
2023/04/12 07:56:35;;;;;;;12.50;8.15;;;;;;;;;;6269919;28;20087;-58
2023/04/12 07:59:36;;;;;;;14.95;8.35;;;;;;;;;;6274271;28;20052;-58
2023/04/12 08:02:36;;;;;;;11.85;7.38;;;;;;;;;;6292682;28;20037;-59
2023/04/12 08:05:37;;;;;;;13.68;7.97;;;;;;;;;;6270871;28;20056;-58
2023/04/12 08:08:38;;;;;;;15.00;8.63;;;;;;;;;;6272129;28;20059;-58
2023/04/12 08:11:38;;;;;;;11.93;7.57;;;;;;;;;;6292217;28;20053;-58
2023/04/12 08:14:39;;;;;;;13.68;7.20;;;;;;;;;;6271092;28;20080;-58
2023/04/12 08:17:42;;;;;;;12.90;7.40;;;;;;;;;;6281871;28;20053;-58
2023/04/12 08:20:43;;;;;;;10.35;7.13;;;;;;;;;;6271237;28;20044;-58
2023/04/12 08:23:44;;;;;;;14.15;7.72;;;;;;;;;;6271449;28;20048;-58
2023/04/12 08:26:45;;;;;;;15.55;7.82;;;;;;;;;;6267210;28;20558;-58
2023/04/12 08:29:45;;;;;;;12.07;7.88;;;;;;;;;;6286584;28;20060;-59
2023/04/12 08:32:46;;;;;;;12.65;7.50;;;;;;;;;;6274588;28;20553;-58
2023/04/12 08:35:46;;;;;;;12.68;8.05;;;;;;;;;;6273475;28;20052;-58
2023/04/12 08:38:51;;;;;;;15.68;8.43;;;;;;;;;;6274250;28;20158;-58
2023/04/12 08:41:54;;;;;;;12.95;7.18;;;;;;;;;;6288021;28;20045;-58
2023/04/12 08:44:54;;;;;;;11.20;7.00;;;;;;;;;;6280736;28;20480;-59
2023/04/12 08:47:55;;;;;;;10.98;6.85;;;;;;;;;;6275873;28;20064;-58
2023/04/12 08:50:59;;;;;;;10.93;6.95;;;;;;;;;;6275602;28;20459;-58
2023/04/12 08:53:59;;;;;;;10.30;6.63;;;;;;;;;;6273969;28;20602;-58
2023/04/12 08:57:07;;;;;;;11.23;7.13;;;;;;;;;;6275111;28;20059;-58
2023/04/12 09:00:09;;;;;;;9.50;5.90;;;;;;;;;;6272307;28;20087;-58
2023/04/12 09:03:10;;;;;;;;;;;;;;;;;;6274779;28;20053;-58
2023/04/12 09:06:11;;;;;;;8.40;5.35;;;;;;;;;;6274527;28;19925;-58
2023/04/12 09:09:13;;;;;;;9.23;5.70;;;;;;;;;;6289891;28;20052;-58
2023/04/12 09:12:14;;;;;;;7.70;5.00;;;;;;;;;;6284673;28;20127;-59
2023/04/12 09:15:17;;;;;;;12.40;6.95;;;;;;;;;;6274871;28;20473;-58
2023/04/12 09:18:17;;;;;;;12.48;6.75;;;;;;;;;;6274279;28;20519;-58
2023/04/12 09:21:18;;;;;;;8.68;5.63;;;;;;;;;;6274855;28;20143;-58
2023/04/12 09:24:22;;;;;;;7.80;5.30;;;;;;;;;;6272756;28;20500;-58
2023/04/12 09:27:24;;;;;;;8.13;5.22;;;;;;;;;;6273748;28;20148;-58
2023/04/12 09:30:24;;;;;;;8.65;5.88;;;;;;;;;;6274632;28;20057;-58
2023/04/12 09:33:34;;;;;;;9.98;4.95;;;;;;;;;;6270805;28;20045;-58
2023/04/12 09:36:39;;;;;;;8.50;5.20;;;;;;;;;;6273083;28;20064;-58
2023/04/12 09:39:41;;;;;;;9.60;5.43;;;;;;;;;;6273968;28;20040;-58
2023/04/12 09:42:54;;;;;;;9.60;5.40;;;;;;;;;;6273448;28;20067;-58
2023/04/12 09:46:09;;;;;;;7.97;5.38;;;;;;;;;;6274411;28;20048;-58
2023/04/12 09:49:10;;;;;;;11.20;6.15;;;;;;;;;;6271977;28;20068;-58
2023/04/12 09:52:13;;;;;;;10.65;5.80;;;;;;;;;;6272846;28;20139;-58
2023/04/12 09:55:14;;;;;;;7.80;5.72;;;;;;;;;;6271295;28;20055;-59
2023/04/12 09:58:19;;;;;;;7.90;5.28;;;;;;;;;;6274861;28;20124;-58
2023/04/12 10:01:22;;;;;;;8.85;4.88;;;;;;;;;;6272983;28;20044;-58
2023/04/12 10:04:24;;;;;;;10.95;6.03;;;;;;;;;;6283130;28;20049;-59
2023/04/12 10:07:26;;;;;;;9.33;5.63;;;;;;;;;;6276175;28;20041;-59
2023/04/12 10:10:28;;;;;;;10.02;6.13;;;;;;;;;;6271997;28;20048;-58
2023/04/12 10:13:31;;;;;;;10.90;5.40;;;;;;;;;;6272258;28;20045;-58
2023/04/12 10:16:37;;;;;;;8.52;4.80;;;;;;;;;;6275683;28;20040;-58
2023/04/12 10:19:38;;;;;;;9.40;5.20;;;;;;;;;;6293227;28;20056;-58
2023/04/12 10:22:44;;;;;;;7.30;4.63;;;;;;;;;;6268182;28;20052;-58
2023/04/12 10:25:47;;;;;;;8.75;5.07;;;;;;;;;;6272787;28;20044;-58
2023/04/12 10:29:27;;;;;;;6.78;4.70;;;;;;;;;;6270731;28;20052;-59
2023/04/12 10:32:28;;;;;;;6.05;4.30;;;;;;;;;;6235504;28;20068;-58
2023/04/12 10:35:47;;;;;;;8.82;4.82;;;;;;;;;;6270664;28;20048;-59
2023/04/12 10:39:08;;;;;;;7.78;4.82;;;;;;;;;;6270803;28;20396;-58
2023/04/12 10:42:15;;;;;;;6.75;4.22;;;;;;;;;;6271043;28;20048;-59
2023/04/12 10:45:30;;;;;;;10.50;4.43;;;;;;;;;;6270970;28;20437;-59
2023/04/12 10:48:36;;;;;;;6.35;4.05;;;;;;;;;;6271444;28;20040;-58
2023/04/12 10:51:37;;;;;;;7.15;4.57;;;;;;;;;;6273610;28;20808;-58
2023/04/12 10:54:37;;;;;;;8.13;5.30;;;;;;;;;;6272484;28;20051;-58
2023/04/12 10:57:46;;;;;;;7.30;4.70;;;;;;;;;;6284747;28;20142;-59
2023/04/12 11:00:55;;;;;;;7.95;4.63;;;;;;;;;;6285395;28;20045;-58
2023/04/12 11:04:19;;;;;;;6.50;4.28;;;;;;;;;;6272398;28;20060;-58
2023/04/12 11:07:19;;;;;;;7.68;5.10;;;;;;;;;;6274361;28;20041;-58
2023/04/12 11:10:20;;;;;;;8.32;4.53;;;;;;;;;;6289547;28;20560;-58
2023/04/12 11:13:21;;;;;;;7.22;4.38;;;;;;;;;;6277358;28;20055;-58
2023/04/12 11:16:21;;;;;;;8.38;4.88;;;;;;;;;;6273296;28;20045;-58
2023/04/12 11:19:22;;;;;;;7.78;5.13;;;;;;;;;;6284274;28;20098;-58
2023/04/12 11:22:28;;;;;;;5.93;3.85;;;;;;;;;;6284481;28;20041;-58
2023/04/12 11:25:30;;;;;;;7.65;4.15;;;;;;;;;;6287729;28;20071;-59
2023/04/12 11:28:30;;;;;;;6.80;4.45;;;;;;;;;;6274685;28;20523;-58
2023/04/12 11:31:31;;;;;;;9.27;4.95;;;;;;;;;;6289184;28;20056;-58
2023/04/12 11:34:34;;;;;;;7.53;4.45;;;;;;;;;;6270739;28;20037;-58
2023/04/12 11:37:35;;;;;;;6.05;4.55;;;;;;;;;;6272612;28;20442;-59
2023/04/12 11:40:36;;;;;;;7.15;4.50;;;;;;;;;;6268651;28;20084;-58
2023/04/12 11:43:37;;;;;;;11.75;5.68;;;;;;;;;;6287776;28;20052;-58
2023/04/12 11:46:38;;;;;;;9.77;5.65;;;;;;;;;;6283768;28;20052;-58
2023/04/12 11:49:53;;;;;;;7.15;4.20;;;;;;;;;;6276472;28;20126;-58
2023/04/12 11:52:54;;;;;;;7.05;4.30;;;;;;;;;;6292049;28;20144;-58
2023/04/12 11:55:57;;;;;;;6.50;4.35;;;;;;;;;;6272764;28;20049;-58
2023/04/12 11:58:58;;;;;;;6.60;4.70;;;;;;;;;;6271051;28;20454;-59
2023/04/12 12:02:03;;;;;;;6.00;4.05;;;;;;;;;;6268179;28;20045;-58
2023/04/12 12:05:05;;;;;;;6.53;4.10;;;;;;;;;;6270774;28;20140;-59
2023/04/12 12:08:07;;;;;;;8.52;4.60;;;;;;;;;;6275330;28;20114;-59
2023/04/12 12:11:08;;;;;;;10.77;4.82;;;;;;;;;;6275279;28;20465;-59
2023/04/12 12:14:09;;;;;;;5.93;4.28;;;;;;;;;;6279273;28;20044;-58
2023/04/12 12:17:15;;;;;;;7.10;4.38;;;;;;;;;;6273537;28;20837;-58
2023/04/12 12:20:20;;;;;;;6.57;4.07;;;;;;;;;;6274038;28;20143;-58
2023/04/12 12:23:31;;;;;;;8.52;4.43;;;;;;;;;;6274375;28;20046;-58
2023/04/12 12:26:31;;;;;;;9.43;5.25;;;;;;;;;;6287775;28;20102;-59
2023/04/12 12:29:36;;;;;;;8.73;4.47;;;;;;;;;;6291919;28;21834;-59
2023/04/12 12:32:39;;;;;;;6.60;4.00;;;;;;;;;;6278164;28;20094;-58
2023/04/12 12:35:39;;;;;;;7.22;4.55;;;;;;;;;;6293874;28;20048;-59
2023/04/12 12:38:44;;;;;;;6.60;4.53;;;;;;;;;;6272273;28;20053;-59
2023/04/12 12:41:53;;;;;;;7.13;4.35;;;;;;;;;;6273068;28;20744;-58
2023/04/12 12:44:54;;;;;;;9.25;4.60;;;;;;;;;;6274242;28;20094;-59
2023/04/12 12:47:59;;;;;;;8.10;4.30;;;;;;;;;;6275528;28;20529;-59
2023/04/12 12:51:00;;;;;;;10.60;5.70;;;;;;;;;;6275887;28;20507;-58
2023/04/12 12:54:00;;;;;;;8.75;5.00;;;;;;;;;;6275581;28;20127;-58
2023/04/12 12:57:02;;;;;;;8.45;5.32;;;;;;;;;;6277288;28;20132;-58
2023/04/12 13:00:05;;;;;;;6.30;4.30;;;;;;;;;;6276856;28;20162;-58
2023/04/12 13:03:06;;;;;;;7.30;4.40;;;;;;;;;;6273172;28;20041;-58
2023/04/12 13:06:07;;;;;;;9.40;5.53;;;;;;;;;;6276765;28;20052;-58
2023/04/12 13:09:08;;;;;;;10.70;5.00;;;;;;;;;;6278521;28;20047;-58
2023/04/12 13:12:08;;;;;;;7.75;4.80;;;;;;;;;;6272443;28;20378;-58
2023/04/12 13:15:10;;;;;;;8.90;4.93;;;;;;;;;;6275222;28;20060;-59
2023/04/12 13:18:14;;;;;;;6.85;4.50;;;;;;;;;;6276336;28;20055;-59
2023/04/12 13:21:15;;;;;;;9.63;5.63;;;;;;;;;;6273336;28;20135;-59
2023/04/12 13:24:15;;;;;;;9.95;5.93;;;;;;;;;;6274856;28;20091;-57
2023/04/12 13:27:16;;;;;;;7.30;4.30;;;;;;;;;;6276838;28;20768;-58
2023/04/12 13:30:18;;;;;;;6.43;3.63;;;;;;;;;;6270802;28;20444;-58
2023/04/12 13:33:19;;;;;;;;;;;;;;;;;;6274930;28;20052;-59
2023/04/12 13:36:19;;;;;;;6.72;4.00;;;;;;;;;;6276426;28;19928;-59
2023/04/12 13:39:20;;;;;;;5.80;4.00;;;;;;;;;;6274321;28;20101;-59
2023/04/12 13:42:22;;;;;;;6.95;4.43;;;;;;;;;;6271042;28;20140;-59
2023/04/12 13:45:23;;;;;;;6.75;4.45;;;;;;;;;;6275295;28;20567;-58
2023/04/12 13:48:23;;;;;;;6.45;3.67;;;;;;;;;;6275513;28;20051;-59
2023/04/12 13:51:25;;;;;;;5.38;3.90;;;;;;;;;;6271785;28;20056;-59
2023/04/12 13:54:26;;;;;;;8.02;5.22;;;;;;;;;;6271879;28;20044;-59
2023/04/12 13:57:26;;;;;;;8.50;4.20;;;;;;;;;;6273984;28;20562;-58
2023/04/12 14:00:27;;;;;;;8.50;4.63;;;;;;;;;;6275551;28;21130;-58
2023/04/12 14:03:28;;;;;;;8.20;4.50;;;;;;;;;;6272769;28;20135;-59
2023/04/12 14:06:29;;;;;;;7.55;4.60;;;;;;;;;;6273801;28;20060;-59
2023/04/12 14:09:31;;;;;;;10.93;5.20;;;;;;;;;;6274050;28;20931;-58
2023/04/12 14:12:31;;;;;;;8.18;4.70;;;;;;;;;;6272514;28;20060;-58
2023/04/12 14:15:32;;;;;;;7.25;4.13;;;;;;;;;;6274792;28;20390;-59
2023/04/12 14:18:33;;;;;;;8.90;4.63;;;;;;;;;;6272897;28;20078;-59
2023/04/12 14:21:33;;;;;;;6.75;4.32;;;;;;;;;;6268943;28;21532;-58
2023/04/12 14:24:34;;;;;;;6.80;4.30;;;;;;;;;;6273004;28;20067;-58
2023/04/12 14:27:35;;;;;;;5.80;4.20;;;;;;;;;;6273075;28;20649;-58
2023/04/12 14:30:36;;;;;;;9.45;4.90;;;;;;;;;;6271735;28;20056;-58
2023/04/12 14:33:37;;;;;;;10.80;4.82;;;;;;;;;;6273451;28;20163;-56
2023/04/12 14:36:37;;;;;;;9.73;5.00;;;;;;;;;;6275054;28;20836;-59
2023/04/12 14:39:38;;;;;;;10.73;5.53;;;;;;;;;;6274864;28;20099;-59
2023/04/12 14:42:39;;;;;;;9.45;5.75;;;;;;;;;;6271284;28;20048;-59
2023/04/12 14:45:40;;;;;;;8.45;5.28;;;;;;;;;;6272048;28;20053;-58
2023/04/12 14:48:40;;;;;;;7.13;4.72;;;;;;;;;;6275930;28;20109;-58
2023/04/12 14:51:41;;;;;;;9.88;5.85;;;;;;;;;;6272691;28;20461;-58
2023/04/12 14:54:42;;;;;;;11.35;5.95;;;;;;;;;;6277113;28;20076;-58
2023/04/12 14:57:43;;;;;;;8.60;5.22;;;;;;;;;;6275016;28;20056;-59
2023/04/12 15:00:43;;;;;;;7.95;5.20;;;;;;;;;;6271601;28;20060;-59
2023/04/12 15:03:46;;;;;;;6.78;4.50;;;;;;;;;;6274759;28;20056;-59
2023/04/12 15:06:46;;;;;;;6.53;4.22;;;;;;;;;;6275234;28;20077;-58
2023/04/12 15:09:47;;;;;;;8.95;5.10;;;;;;;;;;6274933;28;20060;-58
2023/04/12 15:12:47;;;;;;;7.88;4.28;;;;;;;;;;6273449;28;20045;-58
2023/04/12 15:15:48;;;;;;;6.70;4.50;;;;;;;;;;6272483;28;20121;-58
2023/04/12 15:18:49;;;;;;;8.63;5.53;;;;;;;;;;6276281;28;20069;-58
2023/04/12 15:22:09;;;;;;;7.47;4.25;;;;;;;;;;6272243;28;20057;-59
2023/04/12 15:25:10;;;;;;;8.02;4.50;;;;;;;;;;6273604;28;21004;-58
2023/04/12 15:28:11;;;;;;;7.83;5.07;;;;;;;;;;6279563;28;20052;-59
2023/04/12 15:31:12;;;;;;;7.07;4.40;;;;;;;;;;6281163;28;20044;-60
2023/04/12 15:34:13;;;;;;;8.77;4.90;;;;;;;;;;6282279;28;20402;-59
2023/04/12 15:37:14;;;;;;;6.40;4.25;;;;;;;;;;6282625;28;20067;-58
2023/04/12 15:40:17;;;;;;;10.85;5.43;;;;;;;;;;6274719;28;20060;-59
2023/04/12 15:43:17;;;;;;;10.38;5.00;;;;;;;;;;6280482;28;20498;-58
2023/04/12 15:46:18;;;;;;;8.35;4.00;;;;;;;;;;6281053;28;20045;-58
2023/04/12 15:49:18;;;;;;;7.25;3.90;;;;;;;;;;6280025;28;20149;-58
2023/04/12 15:52:19;;;;;;;5.85;3.38;;;;;;;;;;6278240;28;20495;-58
2023/04/12 15:55:20;;;;;;;7.43;3.30;;;;;;;;;;6279567;28;20487;-59
2023/04/12 15:58:22;;;;;;;7.33;3.50;;;;;;;;;;6282360;28;20056;-58
2023/04/12 16:01:24;;;;;;;7.00;4.32;;;;;;;;;;6278506;28;20057;-58
2023/04/12 16:04:25;;;;;;;9.85;4.95;;;;;;;;;;6279430;28;20062;-56
2023/04/12 16:07:28;;;;;;;10.63;6.80;;;;;;;;;;6281258;28;20139;-58
2023/04/12 16:10:29;;;;;;;12.10;6.43;;;;;;;;;;6279103;28;20060;-58
2023/04/12 16:13:29;;;;;;;10.68;5.60;;;;;;;;;;6279515;28;20094;-58
2023/04/12 16:16:30;;;;;;;37.15;18.33;;;;;;;;;;6280255;28;20048;-58
2023/04/12 16:19:31;;;;;;;10.40;6.07;;;;;;;;;;6281277;28;20041;-58
2023/04/12 16:22:32;;;;;;;10.82;6.22;;;;;;;;;;6279038;28;20052;-58
2023/04/12 16:25:34;;;;;;;9.43;5.57;;;;;;;;;;6281357;28;20048;-57
2023/04/12 16:28:36;;;;;;;;;;;;;;;;;;6282880;28;20049;-58
2023/04/12 16:31:37;;;;;;;10.18;5.68;;;;;;;;;;6280091;28;20405;-57
2023/04/12 16:34:40;;;;;;;17.50;6.20;;;;;;;;;;6280941;28;20132;-57
2023/04/12 16:37:41;;;;;;;7.65;4.00;;;;;;;;;;6280136;28;20614;-58
2023/04/12 16:40:42;;;;;;;10.40;4.75;;;;;;;;;;6278138;28;20544;-58
2023/04/12 16:43:42;;;;;;;8.30;4.13;;;;;;;;;;6278353;28;20056;-57
2023/04/12 16:46:45;;;;;;;9.48;5.35;;;;;;;;;;6280185;28;20086;-58
2023/04/12 16:49:46;;;;;;;15.57;6.88;;;;;;;;;;6279072;28;21438;-57
2023/04/12 16:52:47;;;;;;;10.23;6.03;;;;;;;;;;6281971;28;20056;-58
2023/04/12 16:55:47;;;;;;;8.68;5.65;;;;;;;;;;6282202;28;20124;-59
2023/04/12 16:58:48;;;;;;;8.27;5.63;;;;;;;;;;6285171;28;20525;-58
2023/04/12 17:01:49;;;;;;;9.65;6.18;;;;;;;;;;6284077;28;20064;-59
2023/04/12 17:04:50;;;;;;;11.02;6.25;;;;;;;;;;6282278;28;20487;-58
2023/04/12 17:07:52;;;;;;;9.45;6.57;;;;;;;;;;6285411;28;20056;-59
2023/04/12 17:10:53;;;;;;;13.55;7.20;;;;;;;;;;6283632;28;20053;-57
2023/04/12 17:13:54;;;;;;;12.38;7.18;;;;;;;;;;6283661;28;20053;-60
2023/04/12 17:16:56;;;;;;;14.30;8.02;;;;;;;;;;6283695;28;20057;-55
2023/04/12 17:19:56;;;;;;;15.70;7.63;;;;;;;;;;6282777;28;20079;-57
2023/04/12 17:22:57;;;;;;;15.05;9.00;;;;;;;;;;6283592;28;20068;-56
2023/04/12 17:25:58;;;;;;;14.60;8.70;;;;;;;;;;6283866;28;20090;-58
2023/04/12 17:28:59;;;;;;;13.77;7.68;;;;;;;;;;6282885;28;20729;-58
2023/04/12 17:32:00;;;;;;;15.30;8.50;;;;;;;;;;6280525;28;20048;-57
2023/04/12 17:35:02;;;;;;;15.02;8.38;;;;;;;;;;6281776;28;20051;-59
2023/04/12 17:38:03;;;;;;;17.33;9.77;;;;;;;;;;6283758;28;20056;-55
2023/04/12 17:41:08;;;;;;;17.48;10.00;;;;;;;;;;6281745;28;20118;-64
2023/04/12 17:44:08;;;;;;;19.33;12.85;;;;;;;;;;6280782;28;20507;-57
2023/04/12 17:47:09;;;;;;;20.08;11.85;;;;;;;;;;6282034;28;20055;-55
2023/04/12 17:50:11;;;;;;;23.60;13.10;;;;;;;;;;6280716;28;20048;-55
2023/04/12 17:53:11;;;;;;;22.45;11.30;;;;;;;;;;6283282;28;20048;-57
2023/04/12 17:56:12;;;;;;;21.02;12.90;;;;;;;;;;6281037;28;20056;-57
2023/04/12 17:59:13;;;;;;;25.08;14.52;;;;;;;;;;6283865;28;20167;-56
2023/04/12 18:02:15;;;;;;;27.30;15.68;;;;;;;;;;6278927;28;20411;-56
2023/04/12 18:05:17;;;;;;;22.77;14.70;;;;;;;;;;6280120;28;20197;-58